sensor_id;sensor_type;location;lat;lon;timestamp;P1;durP1;ratioP1;P2;durP2;ratioP2
10463;SDS011;5279;42.048;24.638;2022-08-01T00:02:19;4.83;;;4.53;;
10463;SDS011;5279;42.048;24.638;2022-08-01T00:04:46;5.03;;;4.63;;
10463;SDS011;5279;42.048;24.638;2022-08-01T00:07:13;4.77;;;4.47;;
10463;SDS011;5279;42.048;24.638;2022-08-01T00:09:40;5.23;;;4.83;;
10463;SDS011;5279;42.048;24.638;2022-08-01T00:12:07;4.60;;;4.30;;
10463;SDS011;5279;42.048;24.638;2022-08-01T00:14:34;4.73;;;4.43;;
10463;SDS011;5279;42.048;24.638;2022-08-01T00:17:01;4.83;;;4.43;;
10463;SDS011;5279;42.048;24.638;2022-08-01T00:19:30;5.17;;;4.67;;
10463;SDS011;5279;42.048;24.638;2022-08-01T00:21:58;5.00;;;4.60;;
10463;SDS011;5279;42.048;24.638;2022-08-01T00:24:25;5.17;;;4.77;;
10463;SDS011;5279;42.048;24.638;2022-08-01T00:26:52;4.63;;;4.33;;
10463;SDS011;5279;42.048;24.638;2022-08-01T00:29:19;4.80;;;4.40;;
10463;SDS011;5279;42.048;24.638;2022-08-01T00:31:46;5.00;;;4.60;;
10463;SDS011;5279;42.048;24.638;2022-08-01T00:34:13;5.17;;;4.80;;
10463;SDS011;5279;42.048;24.638;2022-08-01T00:36:41;5.20;;;4.70;;
10463;SDS011;5279;42.048;24.638;2022-08-01T00:39:08;5.20;;;4.70;;
10463;SDS011;5279;42.048;24.638;2022-08-01T00:41:35;4.70;;;4.40;;
10463;SDS011;5279;42.048;24.638;2022-08-01T00:44:03;5.50;;;4.73;;
10463;SDS011;5279;42.048;24.638;2022-08-01T00:46:30;5.43;;;4.77;;
10463;SDS011;5279;42.048;24.638;2022-08-01T00:48:58;5.33;;;4.93;;
10463;SDS011;5279;42.048;24.638;2022-08-01T00:51:28;4.97;;;4.67;;
10463;SDS011;5279;42.048;24.638;2022-08-01T00:53:56;4.90;;;4.60;;
10463;SDS011;5279;42.048;24.638;2022-08-01T00:56:25;4.73;;;4.30;;
10463;SDS011;5279;42.048;24.638;2022-08-01T00:58:53;4.90;;;4.60;;
10463;SDS011;5279;42.048;24.638;2022-08-01T01:01:21;4.40;;;4.00;;
10463;SDS011;5279;42.048;24.638;2022-08-01T01:03:49;4.77;;;4.33;;
10463;SDS011;5279;42.048;24.638;2022-08-01T01:06:25;5.13;;;4.63;;
10463;SDS011;5279;42.048;24.638;2022-08-01T01:09:10;4.80;;;4.40;;
10463;SDS011;5279;42.048;24.638;2022-08-01T01:11:48;4.87;;;4.33;;
10463;SDS011;5279;42.048;24.638;2022-08-01T01:14:27;5.43;;;4.97;;
10463;SDS011;5279;42.048;24.638;2022-08-01T01:17:00;4.93;;;4.07;;
10463;SDS011;5279;42.048;24.638;2022-08-01T01:19:33;4.90;;;4.50;;
10463;SDS011;5279;42.048;24.638;2022-08-01T01:22:12;4.40;;;4.20;;
10463;SDS011;5279;42.048;24.638;2022-08-01T01:24:51;4.80;;;4.40;;
10463;SDS011;5279;42.048;24.638;2022-08-01T01:27:36;4.30;;;4.00;;
10463;SDS011;5279;42.048;24.638;2022-08-01T01:30:17;4.70;;;4.40;;
10463;SDS011;5279;42.048;24.638;2022-08-01T01:32:45;4.37;;;4.03;;
10463;SDS011;5279;42.048;24.638;2022-08-01T01:35:15;4.60;;;4.30;;
10463;SDS011;5279;42.048;24.638;2022-08-01T01:37:46;5.00;;;4.60;;
10463;SDS011;5279;42.048;24.638;2022-08-01T01:40:16;4.63;;;4.30;;
10463;SDS011;5279;42.048;24.638;2022-08-01T01:42:46;4.50;;;4.20;;
10463;SDS011;5279;42.048;24.638;2022-08-01T01:45:16;4.50;;;4.10;;
10463;SDS011;5279;42.048;24.638;2022-08-01T01:47:44;4.57;;;4.27;;
10463;SDS011;5279;42.048;24.638;2022-08-01T01:50:13;6.60;;;4.03;;
10463;SDS011;5279;42.048;24.638;2022-08-01T01:52:41;4.70;;;4.30;;
10463;SDS011;5279;42.048;24.638;2022-08-01T01:55:10;5.07;;;4.53;;
10463;SDS011;5279;42.048;24.638;2022-08-01T01:57:40;4.07;;;3.80;;
10463;SDS011;5279;42.048;24.638;2022-08-01T02:00:11;4.50;;;4.20;;
10463;SDS011;5279;42.048;24.638;2022-08-01T02:02:40;4.37;;;4.07;;
10463;SDS011;5279;42.048;24.638;2022-08-01T02:05:08;4.70;;;4.30;;
10463;SDS011;5279;42.048;24.638;2022-08-01T02:07:37;4.07;;;3.87;;
10463;SDS011;5279;42.048;24.638;2022-08-01T02:10:05;4.70;;;3.70;;
10463;SDS011;5279;42.048;24.638;2022-08-01T02:12:34;6.00;;;3.80;;
10463;SDS011;5279;42.048;24.638;2022-08-01T02:15:04;3.80;;;3.50;;
10463;SDS011;5279;42.048;24.638;2022-08-01T02:17:34;4.30;;;4.00;;
10463;SDS011;5279;42.048;24.638;2022-08-01T02:20:10;3.57;;;3.27;;
10463;SDS011;5279;42.048;24.638;2022-08-01T02:22:40;3.70;;;3.40;;
10463;SDS011;5279;42.048;24.638;2022-08-01T02:25:10;4.07;;;3.77;;
10463;SDS011;5279;42.048;24.638;2022-08-01T02:27:50;6.43;;;3.50;;
10463;SDS011;5279;42.048;24.638;2022-08-01T02:30:25;3.90;;;3.60;;
10463;SDS011;5279;42.048;24.638;2022-08-01T02:32:58;5.07;;;3.80;;
10463;SDS011;5279;42.048;24.638;2022-08-01T02:35:30;3.70;;;3.37;;
10463;SDS011;5279;42.048;24.638;2022-08-01T02:38:00;3.70;;;3.40;;
10463;SDS011;5279;42.048;24.638;2022-08-01T02:43:24;3.80;;;3.50;;
10463;SDS011;5279;42.048;24.638;2022-08-01T02:45:56;4.10;;;3.80;;
10463;SDS011;5279;42.048;24.638;2022-08-01T02:48:26;4.53;;;3.77;;
10463;SDS011;5279;42.048;24.638;2022-08-01T02:50:58;5.40;;;3.53;;
10463;SDS011;5279;42.048;24.638;2022-08-01T02:53:27;4.10;;;3.70;;
10463;SDS011;5279;42.048;24.638;2022-08-01T02:56:02;3.90;;;3.40;;
10463;SDS011;5279;42.048;24.638;2022-08-01T02:58:31;4.07;;;3.53;;
10463;SDS011;5279;42.048;24.638;2022-08-01T03:01:00;4.07;;;3.67;;
10463;SDS011;5279;42.048;24.638;2022-08-01T03:03:28;4.60;;;3.50;;
10463;SDS011;5279;42.048;24.638;2022-08-01T03:05:58;3.57;;;3.37;;
10463;SDS011;5279;42.048;24.638;2022-08-01T03:08:26;3.77;;;3.57;;
10463;SDS011;5279;42.048;24.638;2022-08-01T03:10:56;3.80;;;3.50;;
10463;SDS011;5279;42.048;24.638;2022-08-01T03:13:26;3.60;;;3.30;;
10463;SDS011;5279;42.048;24.638;2022-08-01T03:15:56;5.27;;;3.50;;
10463;SDS011;5279;42.048;24.638;2022-08-01T03:18:24;3.73;;;3.50;;
10463;SDS011;5279;42.048;24.638;2022-08-01T03:20:54;4.33;;;3.93;;
10463;SDS011;5279;42.048;24.638;2022-08-01T03:23:24;3.53;;;3.23;;
10463;SDS011;5279;42.048;24.638;2022-08-01T03:25:52;3.50;;;3.20;;
10463;SDS011;5279;42.048;24.638;2022-08-01T03:28:19;3.73;;;3.40;;
10463;SDS011;5279;42.048;24.638;2022-08-01T03:30:48;3.30;;;3.10;;
10463;SDS011;5279;42.048;24.638;2022-08-01T03:33:16;3.20;;;3.00;;
10463;SDS011;5279;42.048;24.638;2022-08-01T03:35:45;5.23;;;2.87;;
10463;SDS011;5279;42.048;24.638;2022-08-01T03:38:16;5.67;;;2.70;;
10463;SDS011;5279;42.048;24.638;2022-08-01T03:40:49;4.93;;;3.10;;
10463;SDS011;5279;42.048;24.638;2022-08-01T03:43:21;2.97;;;2.77;;
10463;SDS011;5279;42.048;24.638;2022-08-01T03:45:53;2.83;;;2.63;;
10463;SDS011;5279;42.048;24.638;2022-08-01T03:48:28;6.13;;;2.47;;
10463;SDS011;5279;42.048;24.638;2022-08-01T03:50:59;2.73;;;2.53;;
10463;SDS011;5279;42.048;24.638;2022-08-01T03:53:28;2.57;;;2.37;;
10463;SDS011;5279;42.048;24.638;2022-08-01T03:55:59;2.87;;;2.67;;
10463;SDS011;5279;42.048;24.638;2022-08-01T03:58:28;2.20;;;2.10;;
10463;SDS011;5279;42.048;24.638;2022-08-01T04:00:57;2.17;;;2.07;;
10463;SDS011;5279;42.048;24.638;2022-08-01T04:03:24;2.57;;;2.00;;
10463;SDS011;5279;42.048;24.638;2022-08-01T04:05:52;2.67;;;2.13;;
10463;SDS011;5279;42.048;24.638;2022-08-01T04:08:19;3.80;;;2.13;;
10463;SDS011;5279;42.048;24.638;2022-08-01T04:10:46;2.67;;;2.10;;
10463;SDS011;5279;42.048;24.638;2022-08-01T04:13:15;2.97;;;2.30;;
10463;SDS011;5279;42.048;24.638;2022-08-01T04:15:42;2.13;;;2.03;;
10463;SDS011;5279;42.048;24.638;2022-08-01T04:18:09;3.43;;;1.80;;
10463;SDS011;5279;42.048;24.638;2022-08-01T04:20:36;2.17;;;2.07;;
10463;SDS011;5279;42.048;24.638;2022-08-01T04:23:03;2.13;;;1.93;;
10463;SDS011;5279;42.048;24.638;2022-08-01T04:25:32;2.00;;;1.63;;
10463;SDS011;5279;42.048;24.638;2022-08-01T04:28:01;1.83;;;1.73;;
10463;SDS011;5279;42.048;24.638;2022-08-01T04:30:32;2.17;;;1.90;;
10463;SDS011;5279;42.048;24.638;2022-08-01T04:33:02;3.37;;;1.83;;
10463;SDS011;5279;42.048;24.638;2022-08-01T04:35:33;1.67;;;1.57;;
10463;SDS011;5279;42.048;24.638;2022-08-01T04:38:02;2.43;;;1.80;;
10463;SDS011;5279;42.048;24.638;2022-08-01T04:40:30;1.97;;;1.87;;
10463;SDS011;5279;42.048;24.638;2022-08-01T04:42:58;1.90;;;1.70;;
10463;SDS011;5279;42.048;24.638;2022-08-01T04:45:26;2.00;;;1.70;;
10463;SDS011;5279;42.048;24.638;2022-08-01T04:47:56;2.83;;;1.70;;
10463;SDS011;5279;42.048;24.638;2022-08-01T04:50:24;1.63;;;1.53;;
10463;SDS011;5279;42.048;24.638;2022-08-01T04:52:52;1.63;;;1.53;;
10463;SDS011;5279;42.048;24.638;2022-08-01T04:55:19;1.90;;;1.80;;
10463;SDS011;5279;42.048;24.638;2022-08-01T04:57:46;1.90;;;1.80;;
10463;SDS011;5279;42.048;24.638;2022-08-01T05:00:14;2.37;;;1.83;;
10463;SDS011;5279;42.048;24.638;2022-08-01T05:02:42;2.47;;;1.77;;
10463;SDS011;5279;42.048;24.638;2022-08-01T05:05:11;1.90;;;1.80;;
10463;SDS011;5279;42.048;24.638;2022-08-01T05:07:38;1.97;;;1.73;;
10463;SDS011;5279;42.048;24.638;2022-08-01T05:10:05;1.70;;;1.60;;
10463;SDS011;5279;42.048;24.638;2022-08-01T05:12:33;1.73;;;1.63;;
10463;SDS011;5279;42.048;24.638;2022-08-01T05:15:01;2.40;;;1.73;;
10463;SDS011;5279;42.048;24.638;2022-08-01T05:17:27;2.53;;;1.80;;
10463;SDS011;5279;42.048;24.638;2022-08-01T05:19:54;1.70;;;1.43;;
10463;SDS011;5279;42.048;24.638;2022-08-01T05:22:22;4.90;;;1.63;;
10463;SDS011;5279;42.048;24.638;2022-08-01T05:24:50;3.37;;;1.80;;
10463;SDS011;5279;42.048;24.638;2022-08-01T05:27:17;2.03;;;1.67;;
10463;SDS011;5279;42.048;24.638;2022-08-01T05:29:44;2.50;;;1.90;;
10463;SDS011;5279;42.048;24.638;2022-08-01T05:32:11;3.63;;;1.77;;
10463;SDS011;5279;42.048;24.638;2022-08-01T05:34:38;3.20;;;2.00;;
10463;SDS011;5279;42.048;24.638;2022-08-01T05:37:05;1.80;;;1.70;;
10463;SDS011;5279;42.048;24.638;2022-08-01T05:39:33;3.00;;;1.63;;
10463;SDS011;5279;42.048;24.638;2022-08-01T05:42:00;3.40;;;1.70;;
10463;SDS011;5279;42.048;24.638;2022-08-01T05:44:27;1.93;;;1.83;;
10463;SDS011;5279;42.048;24.638;2022-08-01T05:46:54;2.13;;;1.83;;
10463;SDS011;5279;42.048;24.638;2022-08-01T05:49:21;2.63;;;1.87;;
10463;SDS011;5279;42.048;24.638;2022-08-01T05:51:48;2.07;;;1.80;;
10463;SDS011;5279;42.048;24.638;2022-08-01T05:54:15;1.87;;;1.77;;
10463;SDS011;5279;42.048;24.638;2022-08-01T05:56:43;2.40;;;1.63;;
10463;SDS011;5279;42.048;24.638;2022-08-01T05:59:10;1.50;;;1.40;;
10463;SDS011;5279;42.048;24.638;2022-08-01T06:01:37;3.23;;;1.67;;
10463;SDS011;5279;42.048;24.638;2022-08-01T06:04:04;6.23;;;1.70;;
10463;SDS011;5279;42.048;24.638;2022-08-01T06:06:31;3.17;;;1.70;;
10463;SDS011;5279;42.048;24.638;2022-08-01T06:08:58;1.77;;;1.50;;
10463;SDS011;5279;42.048;24.638;2022-08-01T06:11:25;1.43;;;1.33;;
10463;SDS011;5279;42.048;24.638;2022-08-01T06:13:53;2.20;;;1.43;;
10463;SDS011;5279;42.048;24.638;2022-08-01T06:16:20;1.80;;;1.67;;
10463;SDS011;5279;42.048;24.638;2022-08-01T06:18:47;1.70;;;1.60;;
10463;SDS011;5279;42.048;24.638;2022-08-01T06:21:14;2.60;;;2.00;;
10463;SDS011;5279;42.048;24.638;2022-08-01T06:23:41;1.67;;;1.47;;
10463;SDS011;5279;42.048;24.638;2022-08-01T06:26:08;3.40;;;1.50;;
10463;SDS011;5279;42.048;24.638;2022-08-01T06:28:35;3.53;;;1.60;;
10463;SDS011;5279;42.048;24.638;2022-08-01T06:31:03;3.10;;;1.70;;
10463;SDS011;5279;42.048;24.638;2022-08-01T06:33:30;2.63;;;1.60;;
10463;SDS011;5279;42.048;24.638;2022-08-01T06:35:57;2.03;;;1.60;;
10463;SDS011;5279;42.048;24.638;2022-08-01T06:38:24;1.80;;;1.50;;
10463;SDS011;5279;42.048;24.638;2022-08-01T06:40:51;3.00;;;1.60;;
10463;SDS011;5279;42.048;24.638;2022-08-01T06:43:18;1.77;;;1.63;;
10463;SDS011;5279;42.048;24.638;2022-08-01T06:45:44;3.10;;;1.80;;
10463;SDS011;5279;42.048;24.638;2022-08-01T06:48:13;4.83;;;1.80;;
10463;SDS011;5279;42.048;24.638;2022-08-01T06:50:40;1.57;;;1.27;;
10463;SDS011;5279;42.048;24.638;2022-08-01T06:53:06;1.60;;;1.50;;
10463;SDS011;5279;42.048;24.638;2022-08-01T06:55:33;2.33;;;1.30;;
10463;SDS011;5279;42.048;24.638;2022-08-01T06:58:00;3.00;;;1.70;;
10463;SDS011;5279;42.048;24.638;2022-08-01T07:00:27;1.60;;;1.50;;
10463;SDS011;5279;42.048;24.638;2022-08-01T07:02:54;2.83;;;1.70;;
10463;SDS011;5279;42.048;24.638;2022-08-01T07:05:25;2.27;;;1.60;;
10463;SDS011;5279;42.048;24.638;2022-08-01T07:07:53;2.60;;;1.80;;
10463;SDS011;5279;42.048;24.638;2022-08-01T07:10:20;3.17;;;1.90;;
10463;SDS011;5279;42.048;24.638;2022-08-01T07:12:46;1.80;;;1.70;;
10463;SDS011;5279;42.048;24.638;2022-08-01T07:15:13;3.50;;;1.40;;
10463;SDS011;5279;42.048;24.638;2022-08-01T07:17:41;1.60;;;1.50;;
10463;SDS011;5279;42.048;24.638;2022-08-01T07:20:09;2.30;;;1.57;;
10463;SDS011;5279;42.048;24.638;2022-08-01T07:22:42;1.63;;;1.53;;
10463;SDS011;5279;42.048;24.638;2022-08-01T07:25:09;4.77;;;1.50;;
10463;SDS011;5279;42.048;24.638;2022-08-01T07:27:36;2.83;;;1.90;;
10463;SDS011;5279;42.048;24.638;2022-08-01T07:30:04;2.63;;;1.90;;
10463;SDS011;5279;42.048;24.638;2022-08-01T07:32:31;1.80;;;1.70;;
10463;SDS011;5279;42.048;24.638;2022-08-01T07:35:01;2.30;;;1.43;;
10463;SDS011;5279;42.048;24.638;2022-08-01T07:37:28;2.90;;;1.53;;
10463;SDS011;5279;42.048;24.638;2022-08-01T07:39:57;1.97;;;1.77;;
10463;SDS011;5279;42.048;24.638;2022-08-01T07:42:23;3.57;;;1.87;;
10463;SDS011;5279;42.048;24.638;2022-08-01T07:44:50;1.83;;;1.70;;
10463;SDS011;5279;42.048;24.638;2022-08-01T07:47:22;5.70;;;1.90;;
10463;SDS011;5279;42.048;24.638;2022-08-01T07:49:50;2.93;;;1.97;;
10463;SDS011;5279;42.048;24.638;2022-08-01T07:52:17;2.70;;;1.50;;
10463;SDS011;5279;42.048;24.638;2022-08-01T07:54:43;2.77;;;1.80;;
10463;SDS011;5279;42.048;24.638;2022-08-01T07:57:12;2.93;;;1.60;;
10463;SDS011;5279;42.048;24.638;2022-08-01T07:59:38;2.53;;;1.57;;
10463;SDS011;5279;42.048;24.638;2022-08-01T08:02:05;3.27;;;1.70;;
10463;SDS011;5279;42.048;24.638;2022-08-01T08:04:32;1.80;;;1.67;;
10463;SDS011;5279;42.048;24.638;2022-08-01T08:06:59;1.80;;;1.60;;
10463;SDS011;5279;42.048;24.638;2022-08-01T08:09:26;3.27;;;1.47;;
10463;SDS011;5279;42.048;24.638;2022-08-01T08:11:54;1.90;;;1.70;;
10463;SDS011;5279;42.048;24.638;2022-08-01T08:14:22;2.10;;;1.80;;
10463;SDS011;5279;42.048;24.638;2022-08-01T08:16:49;1.97;;;1.43;;
10463;SDS011;5279;42.048;24.638;2022-08-01T08:19:16;1.70;;;1.60;;
10463;SDS011;5279;42.048;24.638;2022-08-01T08:21:43;3.55;;;1.70;;
10463;SDS011;5279;42.048;24.638;2022-08-01T08:24:10;3.88;;;1.98;;
10463;SDS011;5279;42.048;24.638;2022-08-01T08:26:46;2.63;;;1.52;;
10463;SDS011;5279;42.048;24.638;2022-08-01T08:29:13;5.10;;;1.45;;
10463;SDS011;5279;42.048;24.638;2022-08-01T08:31:43;2.10;;;1.83;;
10463;SDS011;5279;42.048;24.638;2022-08-01T08:34:10;2.15;;;1.95;;
10463;SDS011;5279;42.048;24.638;2022-08-01T08:36:37;9.40;;;3.20;;
10463;SDS011;5279;42.048;24.638;2022-08-01T08:39:06;2.38;;;1.75;;
10463;SDS011;5279;42.048;24.638;2022-08-01T08:41:33;2.08;;;1.70;;
10463;SDS011;5279;42.048;24.638;2022-08-01T08:44:01;2.35;;;1.60;;
10463;SDS011;5279;42.048;24.638;2022-08-01T08:46:28;1.73;;;1.30;;
10463;SDS011;5279;42.048;24.638;2022-08-01T08:48:59;4.03;;;1.73;;
10463;SDS011;5279;42.048;24.638;2022-08-01T08:51:27;1.67;;;1.58;;
10463;SDS011;5279;42.048;24.638;2022-08-01T08:53:56;4.00;;;1.58;;
10463;SDS011;5279;42.048;24.638;2022-08-01T08:56:24;2.10;;;1.40;;
10463;SDS011;5279;42.048;24.638;2022-08-01T08:58:55;1.63;;;1.40;;
10463;SDS011;5279;42.048;24.638;2022-08-01T09:01:23;1.50;;;1.40;;
10463;SDS011;5279;42.048;24.638;2022-08-01T09:03:50;1.65;;;1.42;;
10463;SDS011;5279;42.048;24.638;2022-08-01T09:06:19;1.75;;;1.65;;
10463;SDS011;5279;42.048;24.638;2022-08-01T09:08:46;2.10;;;1.65;;
10463;SDS011;5279;42.048;24.638;2022-08-01T09:11:13;1.60;;;1.50;;
10463;SDS011;5279;42.048;24.638;2022-08-01T09:13:40;4.50;;;1.63;;
10463;SDS011;5279;42.048;24.638;2022-08-01T09:16:07;4.05;;;1.63;;
10463;SDS011;5279;42.048;24.638;2022-08-01T09:18:34;1.63;;;1.52;;
10463;SDS011;5279;42.048;24.638;2022-08-01T09:21:09;1.50;;;1.40;;
10463;SDS011;5279;42.048;24.638;2022-08-01T09:23:39;1.83;;;1.73;;
10463;SDS011;5279;42.048;24.638;2022-08-01T09:26:09;3.20;;;1.70;;
10463;SDS011;5279;42.048;24.638;2022-08-01T09:28:40;2.25;;;1.80;;
10463;SDS011;5279;42.048;24.638;2022-08-01T09:31:08;2.15;;;1.73;;
10463;SDS011;5279;42.048;24.638;2022-08-01T09:36:19;3.45;;;1.88;;
10463;SDS011;5279;42.048;24.638;2022-08-01T09:38:48;2.78;;;1.65;;
10463;SDS011;5279;42.048;24.638;2022-08-01T09:41:15;2.45;;;1.50;;
10463;SDS011;5279;42.048;24.638;2022-08-01T09:43:47;2.05;;;1.40;;
10463;SDS011;5279;42.048;24.638;2022-08-01T09:46:16;2.20;;;1.48;;
10463;SDS011;5279;42.048;24.638;2022-08-01T09:51:32;2.65;;;1.30;;
10463;SDS011;5279;42.048;24.638;2022-08-01T09:54:03;2.58;;;1.50;;
10463;SDS011;5279;42.048;24.638;2022-08-01T09:56:37;4.00;;;1.60;;
10463;SDS011;5279;42.048;24.638;2022-08-01T09:59:06;1.30;;;1.20;;
10463;SDS011;5279;42.048;24.638;2022-08-01T10:01:47;1.60;;;1.30;;
10463;SDS011;5279;42.048;24.638;2022-08-01T10:04:16;4.55;;;1.30;;
10463;SDS011;5279;42.048;24.638;2022-08-01T10:06:45;1.98;;;1.40;;
10463;SDS011;5279;42.048;24.638;2022-08-01T10:09:26;1.45;;;1.30;;
10463;SDS011;5279;42.048;24.638;2022-08-01T10:11:53;3.25;;;1.30;;
10463;SDS011;5279;42.048;24.638;2022-08-01T10:14:21;2.60;;;1.20;;
10463;SDS011;5279;42.048;24.638;2022-08-01T10:16:50;1.33;;;1.23;;
10463;SDS011;5279;42.048;24.638;2022-08-01T10:19:21;2.85;;;1.40;;
10463;SDS011;5279;42.048;24.638;2022-08-01T10:21:49;3.70;;;1.20;;
10463;SDS011;5279;42.048;24.638;2022-08-01T10:24:19;2.38;;;1.40;;
10463;SDS011;5279;42.048;24.638;2022-08-01T10:26:51;3.42;;;1.50;;
10463;SDS011;5279;42.048;24.638;2022-08-01T10:29:20;1.65;;;1.10;;
10463;SDS011;5279;42.048;24.638;2022-08-01T10:31:49;1.35;;;1.25;;
10463;SDS011;5279;42.048;24.638;2022-08-01T10:34:17;3.53;;;1.40;;
10463;SDS011;5279;42.048;24.638;2022-08-01T10:36:45;2.03;;;1.50;;
10463;SDS011;5279;42.048;24.638;2022-08-01T10:39:13;1.77;;;1.30;;
10463;SDS011;5279;42.048;24.638;2022-08-01T10:41:41;1.25;;;1.15;;
10463;SDS011;5279;42.048;24.638;2022-08-01T10:44:09;1.88;;;1.30;;
10463;SDS011;5279;42.048;24.638;2022-08-01T10:46:39;4.20;;;1.33;;
10463;SDS011;5279;42.048;24.638;2022-08-01T10:49:10;1.40;;;1.30;;
10463;SDS011;5279;42.048;24.638;2022-08-01T10:51:39;2.47;;;1.10;;
10463;SDS011;5279;42.048;24.638;2022-08-01T10:54:07;2.78;;;1.42;;
10463;SDS011;5279;42.048;24.638;2022-08-01T10:56:42;1.30;;;1.20;;
10463;SDS011;5279;42.048;24.638;2022-08-01T10:59:14;1.10;;;1.10;;
10463;SDS011;5279;42.048;24.638;2022-08-01T11:01:55;2.70;;;1.20;;
10463;SDS011;5279;42.048;24.638;2022-08-01T11:04:32;2.20;;;1.30;;
10463;SDS011;5279;42.048;24.638;2022-08-01T11:07:12;1.90;;;1.10;;
10463;SDS011;5279;42.048;24.638;2022-08-01T11:09:43;1.70;;;1.00;;
10463;SDS011;5279;42.048;24.638;2022-08-01T11:12:12;2.08;;;1.30;;
10463;SDS011;5279;42.048;24.638;2022-08-01T11:17:50;2.58;;;1.23;;
10463;SDS011;5279;42.048;24.638;2022-08-01T11:20:18;2.05;;;1.17;;
10463;SDS011;5279;42.048;24.638;2022-08-01T11:26:08;3.58;;;1.20;;
10463;SDS011;5279;42.048;24.638;2022-08-01T11:28:35;1.75;;;1.20;;
10463;SDS011;5279;42.048;24.638;2022-08-01T11:31:31;2.17;;;1.10;;
10463;SDS011;5279;42.048;24.638;2022-08-01T11:33:59;2.05;;;1.17;;
10463;SDS011;5279;42.048;24.638;2022-08-01T11:36:26;2.70;;;1.13;;
10463;SDS011;5279;42.048;24.638;2022-08-01T11:41:44;1.88;;;1.23;;
10463;SDS011;5279;42.048;24.638;2022-08-01T11:44:14;1.15;;;1.08;;
10463;SDS011;5279;42.048;24.638;2022-08-01T11:49:31;3.67;;;1.08;;
10463;SDS011;5279;42.048;24.638;2022-08-01T11:52:14;1.30;;;1.20;;
10463;SDS011;5279;42.048;24.638;2022-08-01T11:54:42;1.40;;;1.25;;
10463;SDS011;5279;42.048;24.638;2022-08-01T11:57:14;1.98;;;1.23;;
10463;SDS011;5279;42.048;24.638;2022-08-01T11:59:45;2.80;;;1.52;;
10463;SDS011;5279;42.048;24.638;2022-08-01T12:02:24;2.83;;;1.40;;
10463;SDS011;5279;42.048;24.638;2022-08-01T12:04:54;4.25;;;1.60;;
10463;SDS011;5279;42.048;24.638;2022-08-01T12:07:23;1.60;;;1.30;;
10463;SDS011;5279;42.048;24.638;2022-08-01T12:09:58;6.95;;;1.40;;
10463;SDS011;5279;42.048;24.638;2022-08-01T12:12:27;2.42;;;1.58;;
10463;SDS011;5279;42.048;24.638;2022-08-01T12:14:55;1.23;;;1.13;;
10463;SDS011;5279;42.048;24.638;2022-08-01T12:17:36;2.35;;;1.20;;
10463;SDS011;5279;42.048;24.638;2022-08-01T12:20:05;1.92;;;1.42;;
10463;SDS011;5279;42.048;24.638;2022-08-01T12:22:34;1.50;;;1.40;;
10463;SDS011;5279;42.048;24.638;2022-08-01T12:25:05;1.60;;;1.50;;
10463;SDS011;5279;42.048;24.638;2022-08-01T12:27:33;3.70;;;1.60;;
10463;SDS011;5279;42.048;24.638;2022-08-01T12:30:01;6.13;;;1.52;;
10463;SDS011;5279;42.048;24.638;2022-08-01T12:32:32;1.50;;;1.40;;
10463;SDS011;5279;42.048;24.638;2022-08-01T12:35:03;1.50;;;1.40;;
10463;SDS011;5279;42.048;24.638;2022-08-01T12:37:32;1.90;;;1.40;;
10463;SDS011;5279;42.048;24.638;2022-08-01T12:40:02;1.15;;;1.10;;
10463;SDS011;5279;42.048;24.638;2022-08-01T12:42:36;1.77;;;1.20;;
10463;SDS011;5279;42.048;24.638;2022-08-01T12:45:04;2.22;;;1.13;;
10463;SDS011;5279;42.048;24.638;2022-08-01T12:47:34;1.65;;;1.30;;
10463;SDS011;5279;42.048;24.638;2022-08-01T12:50:04;1.90;;;1.25;;
10463;SDS011;5279;42.048;24.638;2022-08-01T12:52:32;2.38;;;1.30;;
10463;SDS011;5279;42.048;24.638;2022-08-01T12:55:04;2.80;;;1.20;;
10463;SDS011;5279;42.048;24.638;2022-08-01T12:57:41;1.60;;;1.27;;
10463;SDS011;5279;42.048;24.638;2022-08-01T13:00:10;2.45;;;1.38;;
10463;SDS011;5279;42.048;24.638;2022-08-01T13:02:39;4.13;;;1.50;;
10463;SDS011;5279;42.048;24.638;2022-08-01T13:05:09;1.35;;;1.25;;
10463;SDS011;5279;42.048;24.638;2022-08-01T13:07:41;3.03;;;1.38;;
10463;SDS011;5279;42.048;24.638;2022-08-01T16:40:53;1.90;;;1.80;;
10463;SDS011;5279;42.048;24.638;2022-08-01T16:43:20;2.73;;;2.53;;
10463;SDS011;5279;42.048;24.638;2022-08-01T16:45:47;2.63;;;2.00;;
10463;SDS011;5279;42.048;24.638;2022-08-01T16:48:14;2.23;;;1.83;;
10463;SDS011;5279;42.048;24.638;2022-08-01T16:50:42;2.30;;;2.10;;
10463;SDS011;5279;42.048;24.638;2022-08-01T16:53:13;4.47;;;2.07;;
10463;SDS011;5279;42.048;24.638;2022-08-01T16:55:41;2.90;;;2.00;;
10463;SDS011;5279;42.048;24.638;2022-08-01T16:58:10;3.43;;;2.10;;
10463;SDS011;5279;42.048;24.638;2022-08-01T17:00:37;3.10;;;2.30;;
10463;SDS011;5279;42.048;24.638;2022-08-01T17:03:07;2.77;;;2.00;;
10463;SDS011;5279;42.048;24.638;2022-08-01T17:05:34;2.10;;;2.00;;
10463;SDS011;5279;42.048;24.638;2022-08-01T17:08:01;2.77;;;2.17;;
10463;SDS011;5279;42.048;24.638;2022-08-01T17:10:28;2.90;;;2.10;;
10463;SDS011;5279;42.048;24.638;2022-08-01T17:12:55;2.50;;;2.20;;
10463;SDS011;5279;42.048;24.638;2022-08-01T17:15:23;2.23;;;2.03;;
10463;SDS011;5279;42.048;24.638;2022-08-01T17:17:50;2.90;;;2.20;;
10463;SDS011;5279;42.048;24.638;2022-08-01T17:20:19;4.83;;;1.90;;
10463;SDS011;5279;42.048;24.638;2022-08-01T17:22:46;2.37;;;2.20;;
10463;SDS011;5279;42.048;24.638;2022-08-01T17:25:13;3.13;;;2.00;;
10463;SDS011;5279;42.048;24.638;2022-08-01T17:27:42;3.70;;;2.27;;
10463;SDS011;5279;42.048;24.638;2022-08-01T17:30:09;2.70;;;2.13;;
10463;SDS011;5279;42.048;24.638;2022-08-01T17:32:39;2.40;;;2.30;;
10463;SDS011;5279;42.048;24.638;2022-08-01T17:35:07;4.63;;;2.20;;
10463;SDS011;5279;42.048;24.638;2022-08-01T17:37:35;1.97;;;1.67;;
10463;SDS011;5279;42.048;24.638;2022-08-01T17:40:02;2.30;;;1.90;;
10463;SDS011;5279;42.048;24.638;2022-08-01T17:42:30;2.80;;;2.30;;
10463;SDS011;5279;42.048;24.638;2022-08-01T17:44:57;2.20;;;2.10;;
10463;SDS011;5279;42.048;24.638;2022-08-01T17:47:24;2.30;;;2.10;;
10463;SDS011;5279;42.048;24.638;2022-08-01T17:49:52;2.13;;;2.00;;
10463;SDS011;5279;42.048;24.638;2022-08-01T17:52:19;2.87;;;1.93;;
10463;SDS011;5279;42.048;24.638;2022-08-01T17:54:51;2.37;;;2.00;;
10463;SDS011;5279;42.048;24.638;2022-08-01T17:57:18;2.30;;;2.20;;
10463;SDS011;5279;42.048;24.638;2022-08-01T17:59:45;2.97;;;2.20;;
10463;SDS011;5279;42.048;24.638;2022-08-01T18:02:12;3.20;;;2.00;;
10463;SDS011;5279;42.048;24.638;2022-08-01T18:04:39;2.73;;;2.13;;
10463;SDS011;5279;42.048;24.638;2022-08-01T18:07:07;2.23;;;2.13;;
10463;SDS011;5279;42.048;24.638;2022-08-01T18:09:34;2.40;;;2.30;;
10463;SDS011;5279;42.048;24.638;2022-08-01T18:12:01;2.60;;;2.40;;
10463;SDS011;5279;42.048;24.638;2022-08-01T18:14:29;3.87;;;2.27;;
10463;SDS011;5279;42.048;24.638;2022-08-01T18:16:56;3.83;;;2.43;;
10463;SDS011;5279;42.048;24.638;2022-08-01T18:19:22;2.27;;;2.17;;
10463;SDS011;5279;42.048;24.638;2022-08-01T18:21:50;2.40;;;2.20;;
10463;SDS011;5279;42.048;24.638;2022-08-01T18:24:18;2.20;;;2.10;;
10463;SDS011;5279;42.048;24.638;2022-08-01T18:26:48;3.67;;;2.40;;
10463;SDS011;5279;42.048;24.638;2022-08-01T18:29:17;4.60;;;2.47;;
10463;SDS011;5279;42.048;24.638;2022-08-01T18:31:44;4.17;;;2.20;;
10463;SDS011;5279;42.048;24.638;2022-08-01T18:34:11;3.20;;;2.20;;
10463;SDS011;5279;42.048;24.638;2022-08-01T18:36:38;1.90;;;1.80;;
10463;SDS011;5279;42.048;24.638;2022-08-01T18:39:06;2.63;;;2.40;;
10463;SDS011;5279;42.048;24.638;2022-08-01T18:41:35;2.07;;;1.90;;
10463;SDS011;5279;42.048;24.638;2022-08-01T18:44:03;3.17;;;2.33;;
10463;SDS011;5279;42.048;24.638;2022-08-01T18:46:31;3.57;;;2.20;;
10463;SDS011;5279;42.048;24.638;2022-08-01T18:48:58;4.40;;;2.50;;
10463;SDS011;5279;42.048;24.638;2022-08-01T18:51:25;2.40;;;2.20;;